Impacts METAR Board INFO
IDs:

KMEM - Memphis Intl, TN, US

Updated at: 1912 UTC 16 Jan 2018
Potential Impact None Slight Moderate High
Time16/07Z 16/08Z 16/09Z 16/10Z 16/11Z 16/12Z 16/13Z 16/14Z 16/15Z 16/16Z 16/17Z 16/18Z 16/19Z
VIS5 2.5 1.75 1.75 1.5 1.75 7 10 10 10 10 10 10
CIG12 29 20 18 22 16 38 60 65 70 -- -- --
CoverOVCOVCOVCOVCOVCOVCOVCBKNBKNBKNSCTSCTFEW
FltCatMVFRIFRIFRIFRIFRIFRVFRVFRVFRVFRVFRVFRVFR
WX-SN BR-SN BR-SN BR-SN-SN BR-SN-SN------------
WDir3601036036010350360350360360330310330
WSpd16 12 11 14 11 12 13 11 14 9 12 12 9
WGst22 -- -- -- -- -- -- -- -- -- 18 -- --
Raw hourly METARs
KMEM 160654Z 36016G22KT 5SM -SN BR BKN012 OVC060 M06/M08 A3053 RMK AO2 SLP341 P0000 T10561078 $
KMEM 160754Z 01012KT 2 1/2SM -SN BR OVC029 M07/M08 A3056 RMK AO2 SLP350 P0001 T10671083 $
KMEM 160903Z 36011KT 1 3/4SM -SN BR FEW011 OVC020 M07/M09 A3058 RMK AO2 P0000 T10671089 $
KMEM 160954Z 36014KT 1 3/4SM -SN SCT008 OVC018 M08/M11 A3059 RMK AO2 SLP363 P0001 T10781106 $
KMEM 161054Z 01011KT 1 1/2SM -SN BR OVC022 M09/M11 A3061 RMK AO2 SLP367 P0002 T10891111 $
KMEM 161154Z 35012KT 1 3/4SM -SN BKN016 OVC021 M09/M12 A3063 RMK AO2 SLP376 SNINCR 1/2 4/002 P0001 60007 70010 T10941122 11033 21094 53020 $
KMEM 161254Z 36013KT 7SM -SN SCT017 BKN038 OVC070 M09/M13 A3065 RMK AO2 SLP382 P0000 T10941128 $
KMEM 161354Z 35011KT 10SM SCT047 BKN060 M09/M15 A3067 RMK AO2 SNE21 SLP389 P0000 T10941150 $
KMEM 161454Z 36014KT 10SM FEW017 SCT047 BKN065 M09/M15 A3069 RMK AO2 SLP395 60000 T10941150 51018 $
KMEM 161554Z 36009KT 10SM FEW017 SCT047 BKN070 M11/M16 A3070 RMK AO2 SLP400 T11061161 $
KMEM 161654Z 33012G18KT 10SM FEW045 SCT065 M10/M16 A3070 RMK AO2 SLP399 T11001156 $
KMEM 161754Z COR 31012KT 10SM FEW028 SCT065 M09/M16 A3067 RMK AO2 SLP389 4/002 933003 60000 T10941161 11089 21106 58006 $
KMEM 161854Z 33009KT 10SM FEW028 FEW065 M09/M16 A3065 RMK AO2 SLP383 T10891156 $